Time;durP1;ratioP1;P1;durP2;ratioP2;P2;SDS_P1;SDS_P2;PMS_P1;PMS_P2;Temp;Humidity;BMP_temperature;BMP_pressure;BME280_temperature;BME280_humidity;BME280_pressure;Samples;Min_cycle;Max_cycle;Signal;HPM_P1;HPM_P2
2022/06/24 00:01:41;;;;;;;1.25;0.65;;;;;;;;;;5111565;28;20098;-88
2022/06/24 00:04:06;;;;;;;1.30;0.73;;;;;;;;;;5093385;28;20124;-88
2022/06/24 00:06:46;;;;;;;1.85;0.70;;;;;;;;;;5108762;28;20114;-88
2022/06/24 00:09:14;;;;;;;0.80;0.60;;;;;;;;;;5110729;28;20099;-87
2022/06/24 00:11:40;;;;;;;1.27;0.60;;;;;;;;;;5092873;28;20096;-87
2022/06/24 00:14:08;;;;;;;0.68;0.60;;;;;;;;;;5111319;28;20460;-89
2022/06/24 00:16:52;;;;;;;1.70;0.70;;;;;;;;;;5109959;28;20460;-87
2022/06/24 00:19:18;;;;;;;0.68;0.68;;;;;;;;;;5092298;28;20108;-88
2022/06/24 00:21:43;;;;;;;0.90;0.80;;;;;;;;;;5093278;28;20042;-89
2022/06/24 00:24:21;;;;;;;3.13;0.80;;;;;;;;;;5091749;28;20380;-88
2022/06/24 00:26:46;;;;;;;1.45;0.55;;;;;;;;;;5091592;28;20024;-87
2022/06/24 00:29:18;;;;;;;0.75;0.50;;;;;;;;;;5109279;28;20028;-87
2022/06/24 00:32:03;;;;;;;0.82;0.60;;;;;;;;;;5092644;28;20032;-89
2022/06/24 00:34:29;;;;;;;1.00;0.70;;;;;;;;;;5109854;28;20063;-90
2022/06/24 00:36:54;;;;;;;1.73;0.70;;;;;;;;;;5093112;28;20533;-89
2022/06/24 00:39:20;;;;;;;0.95;0.70;;;;;;;;;;5093167;28;20467;-90
2022/06/24 00:41:52;;;;;;;1.95;0.75;;;;;;;;;;5091377;28;20023;-89
2022/06/24 00:44:20;;;;;;;0.80;0.70;;;;;;;;;;5093847;28;20027;-89
2022/06/24 00:46:47;;;;;;;0.80;0.50;;;;;;;;;;5091887;28;20031;-88
2022/06/24 00:49:14;;;;;;;1.02;0.70;;;;;;;;;;5111135;28;20037;-88
2022/06/24 00:51:41;;;;;;;1.02;0.70;;;;;;;;;;5110725;28;20144;-87
2022/06/24 00:54:17;;;;;;;0.70;0.63;;;;;;;;;;5092570;28;20047;-88
2022/06/24 00:56:45;;;;;;;0.70;0.70;;;;;;;;;;5092998;28;20036;-88
2022/06/24 00:59:10;;;;;;;1.38;0.70;;;;;;;;;;5093219;28;20019;-89
2022/06/24 01:01:41;;;;;;;0.80;0.70;;;;;;;;;;5110968;28;20554;-89
2022/06/24 01:04:09;;;;;;;0.80;0.60;;;;;;;;;;5110654;28;20015;-87
2022/06/24 01:06:37;;;;;;;1.55;0.60;;;;;;;;;;5093396;28;20035;-88
2022/06/24 01:09:03;;;;;;;2.78;1.00;;;;;;;;;;5110796;28;20028;-86
2022/06/24 01:11:32;;;;;;;1.45;0.75;;;;;;;;;;5091302;28;20019;-88
2022/06/24 01:13:58;;;;;;;1.05;0.80;;;;;;;;;;5109466;28;20035;-86
2022/06/24 01:16:24;;;;;;;1.90;0.80;;;;;;;;;;5092149;28;20502;-86
2022/06/24 01:18:54;;;;;;;2.05;0.80;;;;;;;;;;5095960;28;20042;-86
2022/06/24 01:21:38;;;;;;;;;;;;;;;;;;5114213;28;20022;-88
2022/06/24 01:24:18;;;;;;;1.95;0.90;;;;;;;;;;5096046;28;20426;-88
2022/06/24 01:26:48;;;;;;;;;;;;;;;;;;5094139;28;20020;-86
2022/06/24 01:29:14;;;;;;;;;;;;;;;;;;5096473;28;20321;-89
2022/06/24 01:31:40;;;;;;;0.70;0.60;;;;;;;;;;5092163;28;19920;-89
2022/06/24 01:34:08;;;;;;;1.42;1.00;;;;;;;;;;5110416;28;20020;-87
2022/06/24 01:36:34;;;;;;;1.00;0.80;;;;;;;;;;5095907;28;20028;-87
2022/06/24 01:39:03;;;;;;;1.00;0.73;;;;;;;;;;5115074;28;20046;-88
2022/06/24 01:41:28;;;;;;;1.23;0.80;;;;;;;;;;5109481;28;20069;-87
2022/06/24 01:43:54;;;;;;;2.22;1.27;;;;;;;;;;5114262;28;20031;-88
2022/06/24 01:46:19;;;;;;;1.38;0.80;;;;;;;;;;5096184;28;20051;-88
2022/06/24 01:48:45;;;;;;;0.73;0.73;;;;;;;;;;5096270;28;20515;-87
2022/06/24 01:51:13;;;;;;;1.55;0.95;;;;;;;;;;5096171;28;20118;-89
2022/06/24 01:53:39;;;;;;;2.30;1.13;;;;;;;;;;5108413;28;20518;-88
2022/06/24 01:56:04;;;;;;;1.17;0.70;;;;;;;;;;5089498;28;20034;-87
2022/06/24 01:58:30;;;;;;;2.88;1.10;;;;;;;;;;5089877;28;20115;-87
2022/06/24 02:00:55;;;;;;;1.10;0.93;;;;;;;;;;5105071;28;20042;-86
2022/06/24 02:03:21;;;;;;;1.00;0.88;;;;;;;;;;5098018;28;20047;-88
2022/06/24 02:05:47;;;;;;;0.80;0.80;;;;;;;;;;5099789;28;20024;-88
2022/06/24 02:08:14;;;;;;;2.08;1.10;;;;;;;;;;5095835;28;20024;-87
2022/06/24 02:13:28;;;;;;;1.00;0.80;;;;;;;;;;5113729;28;20520;-89
2022/06/24 02:15:58;;;;;;;0.80;0.80;;;;;;;;;;5095519;28;20485;-89
2022/06/24 02:18:25;;;;;;;1.13;0.80;;;;;;;;;;5113183;28;20360;-88
2022/06/24 02:20:50;;;;;;;1.80;0.77;;;;;;;;;;5114006;27;20028;-88
2022/06/24 02:23:18;;;;;;;1.15;0.93;;;;;;;;;;5095119;28;20072;-89
2022/06/24 02:25:45;;;;;;;2.25;0.90;;;;;;;;;;5094907;28;20073;-88
2022/06/24 02:28:11;;;;;;;1.38;1.00;;;;;;;;;;5094339;28;20479;-88
2022/06/24 02:30:38;;;;;;;1.30;0.98;;;;;;;;;;5113443;28;20055;-89
2022/06/24 02:33:04;;;;;;;3.05;1.33;;;;;;;;;;5092448;28;20063;-88
2022/06/24 02:35:29;;;;;;;2.45;1.08;;;;;;;;;;5113758;28;20067;-89
2022/06/24 02:37:55;;;;;;;2.05;1.00;;;;;;;;;;5095369;28;20023;-88
2022/06/24 02:43:12;;;;;;;1.13;0.70;;;;;;;;;;5103411;28;20081;-88
2022/06/24 02:45:38;;;;;;;0.73;0.68;;;;;;;;;;5092312;28;20027;-88
2022/06/24 02:48:04;;;;;;;0.85;0.75;;;;;;;;;;5112334;28;20068;-89
2022/06/24 02:50:30;;;;;;;1.20;0.90;;;;;;;;;;5094977;28;20039;-89
2022/06/24 02:52:55;;;;;;;1.05;0.80;;;;;;;;;;5094762;28;20051;-89
2022/06/24 02:55:21;;;;;;;2.20;1.00;;;;;;;;;;5094372;28;20051;-89
2022/06/24 02:57:46;;;;;;;1.13;0.73;;;;;;;;;;5113094;28;20027;-89
2022/06/24 03:00:12;;;;;;;0.80;0.80;;;;;;;;;;5093945;28;20112;-88
2022/06/24 03:02:37;;;;;;;1.05;0.85;;;;;;;;;;5094663;28;20062;-89
2022/06/24 03:05:03;;;;;;;1.23;0.65;;;;;;;;;;5113344;28;20148;-89
2022/06/24 03:07:29;;;;;;;1.65;0.70;;;;;;;;;;5094242;28;20046;-88
2022/06/24 03:09:54;;;;;;;0.80;0.70;;;;;;;;;;5112681;28;20030;-88
2022/06/24 03:12:19;;;;;;;0.90;0.80;;;;;;;;;;5091776;28;20062;-88
2022/06/24 03:14:45;;;;;;;1.30;0.80;;;;;;;;;;5093324;28;20028;-88
2022/06/24 03:17:10;;;;;;;0.80;0.80;;;;;;;;;;5112293;28;20019;-89
2022/06/24 03:19:36;;;;;;;1.73;1.35;;;;;;;;;;5094233;28;20084;-90
2022/06/24 03:22:01;;;;;;;1.75;0.93;;;;;;;;;;5093725;28;20028;-89
2022/06/24 03:24:28;;;;;;;1.90;1.00;;;;;;;;;;5112977;28;20024;-88
2022/06/24 03:26:53;;;;;;;1.20;0.80;;;;;;;;;;5094154;28;20494;-88
2022/06/24 03:29:18;;;;;;;2.25;0.80;;;;;;;;;;5112546;28;20023;-89
2022/06/24 03:31:44;;;;;;;1.50;0.80;;;;;;;;;;5091876;28;20031;-88
2022/06/24 03:34:09;;;;;;;0.68;0.68;;;;;;;;;;5093473;28;20046;-88
2022/06/24 03:36:35;;;;;;;1.52;0.80;;;;;;;;;;5093114;28;20027;-89
2022/06/24 03:39:00;;;;;;;1.25;0.95;;;;;;;;;;5093564;28;20032;-88
2022/06/24 03:41:26;;;;;;;1.35;0.70;;;;;;;;;;5112561;27;20383;-89
2022/06/24 03:43:51;;;;;;;0.93;0.80;;;;;;;;;;5096041;28;20023;-89
2022/06/24 03:46:16;;;;;;;1.80;1.20;;;;;;;;;;5092933;28;20600;-88
2022/06/24 03:48:42;;;;;;;3.10;1.02;;;;;;;;;;5095963;27;20034;-88
2022/06/24 03:51:07;;;;;;;1.83;1.20;;;;;;;;;;5111382;28;20050;-88
2022/06/24 03:53:33;;;;;;;1.40;1.05;;;;;;;;;;5109658;27;20039;-88
2022/06/24 03:55:58;;;;;;;2.50;1.50;;;;;;;;;;5094091;28;20027;-88
2022/06/24 03:58:24;;;;;;;1.42;1.30;;;;;;;;;;5111805;28;20439;-89
2022/06/24 04:00:49;;;;;;;1.20;1.10;;;;;;;;;;5092815;28;20028;-87
2022/06/24 04:03:15;;;;;;;3.28;1.63;;;;;;;;;;5110234;28;20094;-88
2022/06/24 04:05:40;;;;;;;2.75;1.40;;;;;;;;;;5094967;28;20023;-87
2022/06/24 04:08:05;;;;;;;1.73;1.50;;;;;;;;;;5111930;28;20051;-88
2022/06/24 04:10:31;;;;;;;2.03;1.75;;;;;;;;;;5110035;28;20082;-88
2022/06/24 04:12:56;;;;;;;1.95;1.73;;;;;;;;;;5095841;28;20486;-91
2022/06/24 04:15:25;;;;;;;2.17;1.95;;;;;;;;;;5093153;28;20383;-88
2022/06/24 04:17:50;;;;;;;4.10;2.50;;;;;;;;;;5110003;28;20028;-88
2022/06/24 04:20:17;;;;;;;3.08;2.40;;;;;;;;;;5093988;28;20019;-89
2022/06/24 04:22:44;;;;;;;2.83;2.30;;;;;;;;;;5113665;28;20489;-89
2022/06/24 04:25:11;;;;;;;4.03;2.30;;;;;;;;;;5093696;28;20047;-89
2022/06/24 04:27:37;;;;;;;3.55;2.53;;;;;;;;;;5092788;28;20063;-89
2022/06/24 04:30:07;;;;;;;3.92;2.50;;;;;;;;;;5093321;28;20484;-88
2022/06/24 04:32:33;;;;;;;3.58;2.20;;;;;;;;;;5106886;28;20020;-87
2022/06/24 04:34:59;;;;;;;2.60;2.05;;;;;;;;;;5108235;28;20034;-88
2022/06/24 04:37:25;;;;;;;3.58;2.28;;;;;;;;;;5093340;28;20020;-87
2022/06/24 04:39:51;;;;;;;2.88;2.53;;;;;;;;;;5092638;28;20031;-87
2022/06/24 04:42:16;;;;;;;3.97;3.20;;;;;;;;;;5094312;28;20041;-89
2022/06/24 04:44:42;;;;;;;5.07;3.75;;;;;;;;;;5111616;28;20464;-87
2022/06/24 04:47:07;;;;;;;4.40;4.00;;;;;;;;;;5093892;28;20028;-88
2022/06/24 04:49:33;;;;;;;4.95;3.47;;;;;;;;;;5093793;28;20024;-90
2022/06/24 04:51:59;;;;;;;4.47;3.95;;;;;;;;;;5112323;28;20111;-85
2022/06/24 04:54:24;;;;;;;5.22;3.40;;;;;;;;;;5111162;28;20122;-86
2022/06/24 04:56:50;;;;;;;4.82;3.42;;;;;;;;;;5098774;28;20020;-86
2022/06/24 04:59:16;;;;;;;3.65;3.35;;;;;;;;;;5115056;28;20098;-87
2022/06/24 05:01:41;;;;;;;3.85;3.45;;;;;;;;;;5094794;28;20028;-89
2022/06/24 05:04:07;;;;;;;4.18;3.78;;;;;;;;;;5096596;28;20111;-91
2022/06/24 05:06:32;;;;;;;4.43;3.40;;;;;;;;;;5115210;28;20059;-88
2022/06/24 05:08:58;;;;;;;5.00;3.63;;;;;;;;;;5114130;28;20034;-89
2022/06/24 05:11:24;;;;;;;4.10;3.65;;;;;;;;;;5116262;27;20023;-88
2022/06/24 05:14:08;;;;;;;3.60;3.17;;;;;;;;;;5113977;28;20027;-88
2022/06/24 05:16:34;;;;;;;5.35;3.75;;;;;;;;;;5116773;27;20024;-89
2022/06/24 05:18:59;;;;;;;4.60;3.30;;;;;;;;;;5095867;28;20039;-87
2022/06/24 05:21:25;;;;;;;3.70;3.40;;;;;;;;;;5096412;28;20030;-88
2022/06/24 05:23:51;;;;;;;4.00;3.60;;;;;;;;;;5113431;28;20038;-88
2022/06/24 05:26:17;;;;;;;4.40;3.40;;;;;;;;;;5094802;28;20467;-90
2022/06/24 05:28:42;;;;;;;4.90;3.85;;;;;;;;;;5114542;28;20073;-88
2022/06/24 05:31:08;;;;;;;5.25;3.50;;;;;;;;;;5117318;27;20387;-88
2022/06/24 05:33:33;;;;;;;4.78;3.22;;;;;;;;;;5097532;28;20026;-87
2022/06/24 05:35:59;;;;;;;3.17;2.88;;;;;;;;;;5096555;28;20032;-89
2022/06/24 05:38:25;;;;;;;2.90;2.20;;;;;;;;;;5097751;27;20037;-87
2022/06/24 05:40:56;;;;;;;3.00;2.63;;;;;;;;;;5095939;28;20387;-90
2022/06/24 05:43:21;;;;;;;2.40;2.20;;;;;;;;;;5093843;28;20748;-89
2022/06/24 05:45:47;;;;;;;2.70;2.35;;;;;;;;;;5113693;28;20016;-87
2022/06/24 05:48:16;;;;;;;4.15;2.58;;;;;;;;;;5094069;28;20035;-88
2022/06/24 05:50:42;;;;;;;3.83;2.33;;;;;;;;;;5112832;28;20023;-91
2022/06/24 05:55:56;;;;;;;3.25;2.15;;;;;;;;;;5114210;27;20031;-88
2022/06/24 05:58:21;;;;;;;2.40;2.20;;;;;;;;;;5107194;28;20031;-89
2022/06/24 06:00:47;;;;;;;2.40;1.80;;;;;;;;;;5115295;27;20019;-86
2022/06/24 06:03:12;;;;;;;2.38;2.00;;;;;;;;;;5094762;28;20030;-88
2022/06/24 06:05:37;;;;;;;2.10;1.90;;;;;;;;;;5112253;28;20019;-87
2022/06/24 06:08:04;;;;;;;2.45;2.00;;;;;;;;;;5113570;27;20047;-87
2022/06/24 06:10:29;;;;;;;3.10;1.90;;;;;;;;;;5095424;28;20042;-89
2022/06/24 06:12:55;;;;;;;2.50;1.70;;;;;;;;;;5094970;28;20027;-86
2022/06/24 06:15:20;;;;;;;2.55;2.20;;;;;;;;;;5111889;28;20023;-88
2022/06/24 06:17:45;;;;;;;2.30;2.00;;;;;;;;;;5094334;28;20414;-88
2022/06/24 06:20:11;;;;;;;2.10;1.90;;;;;;;;;;5094425;28;20123;-87
2022/06/24 06:22:36;;;;;;;2.10;1.90;;;;;;;;;;5113067;28;20016;-87
2022/06/24 06:25:03;;;;;;;2.10;1.90;;;;;;;;;;5112834;28;20047;-86
2022/06/24 06:27:28;;;;;;;2.45;2.25;;;;;;;;;;5095008;28;20024;-88
2022/06/24 06:29:53;;;;;;;2.25;1.92;;;;;;;;;;5095263;28;20467;-89
2022/06/24 06:32:19;;;;;;;3.55;2.00;;;;;;;;;;5093593;28;20451;-88
2022/06/24 06:34:44;;;;;;;2.40;1.77;;;;;;;;;;5094266;28;20034;-88
2022/06/24 06:37:11;;;;;;;2.42;1.70;;;;;;;;;;5111607;28;20038;-88
2022/06/24 06:39:36;;;;;;;2.58;1.90;;;;;;;;;;5094295;28;20435;-90
2022/06/24 06:42:02;;;;;;;2.17;1.88;;;;;;;;;;5094981;28;20043;-89
2022/06/24 06:44:28;;;;;;;1.85;1.52;;;;;;;;;;5113486;28;20036;-89
2022/06/24 06:46:53;;;;;;;2.78;1.67;;;;;;;;;;5093936;28;20419;-85
2022/06/24 06:49:19;;;;;;;3.15;1.88;;;;;;;;;;5107010;28;20530;-87
2022/06/24 06:51:44;;;;;;;5.30;1.60;;;;;;;;;;5092190;28;20023;-87
2022/06/24 06:54:11;;;;;;;3.83;2.00;;;;;;;;;;5093851;28;20487;-84
2022/06/24 06:56:36;;;;;;;2.10;1.58;;;;;;;;;;5112034;28;20027;-87
2022/06/24 06:59:02;;;;;;;1.85;1.42;;;;;;;;;;5094104;28;20076;-86
2022/06/24 07:01:27;;;;;;;3.20;1.63;;;;;;;;;;5093864;28;20047;-86
2022/06/24 07:03:52;;;;;;;1.65;1.55;;;;;;;;;;5108997;28;20505;-83
2022/06/24 07:06:18;;;;;;;1.90;1.70;;;;;;;;;;5110245;28;20027;-86
2022/06/24 07:08:43;;;;;;;1.70;1.60;;;;;;;;;;5091002;28;20475;-86
2022/06/24 07:11:09;;;;;;;1.75;1.50;;;;;;;;;;5111411;28;20028;-84
2022/06/24 07:13:34;;;;;;;1.60;1.50;;;;;;;;;;5108715;28;20072;-86
2022/06/24 07:15:59;;;;;;;6.15;5.65;;;;;;;;;;5108391;28;20019;-85
2022/06/24 07:18:25;;;;;;;2.80;2.10;;;;;;;;;;5111075;28;20054;-84
2022/06/24 07:20:50;;;;;;;4.32;3.92;;;;;;;;;;5091928;28;20024;-84
2022/06/24 07:23:16;;;;;;;2.47;1.85;;;;;;;;;;5109580;28;20015;-86
2022/06/24 07:25:41;;;;;;;2.65;1.52;;;;;;;;;;5110672;28;20463;-86
2022/06/24 07:28:07;;;;;;;1.60;1.50;;;;;;;;;;5108391;28;20042;-86
2022/06/24 07:30:32;;;;;;;2.15;1.48;;;;;;;;;;5110115;28;20036;-85
2022/06/24 07:32:58;;;;;;;1.70;1.60;;;;;;;;;;5092905;28;20114;-87
2022/06/24 07:35:24;;;;;;;2.75;2.05;;;;;;;;;;5092858;28;20360;-86
2022/06/24 07:37:52;;;;;;;2.50;1.77;;;;;;;;;;5087710;28;20039;-85
2022/06/24 07:40:17;;;;;;;1.70;1.60;;;;;;;;;;5110459;28;20061;-83
2022/06/24 07:42:43;;;;;;;2.13;1.70;;;;;;;;;;5092479;28;20062;-86
2022/06/24 07:45:09;;;;;;;2.75;1.77;;;;;;;;;;5110623;28;20043;-86
2022/06/24 07:47:36;;;;;;;2.72;1.95;;;;;;;;;;5110952;28;20076;-86
2022/06/24 07:50:06;;;;;;;2.63;1.77;;;;;;;;;;5091561;28;20035;-84
2022/06/24 07:52:31;;;;;;;2.90;1.55;;;;;;;;;;5089389;28;20035;-84
2022/06/24 07:57:41;;;;;;;2.70;1.77;;;;;;;;;;5108982;28;20034;-82
2022/06/24 08:00:07;;;;;;;1.88;1.70;;;;;;;;;;5103436;28;20375;-82
2022/06/24 08:02:32;;;;;;;2.40;1.63;;;;;;;;;;5101527;28;20102;-84
2022/06/24 08:04:57;;;;;;;1.98;1.38;;;;;;;;;;5105973;27;20098;-81
2022/06/24 08:07:23;;;;;;;2.10;1.38;;;;;;;;;;5084449;28;20035;-82
2022/06/24 08:09:49;;;;;;;1.58;1.40;;;;;;;;;;5103290;28;20027;-85
2022/06/24 08:12:14;;;;;;;2.15;1.40;;;;;;;;;;5105869;28;20155;-82
2022/06/24 08:14:39;;;;;;;2.10;1.48;;;;;;;;;;5085520;28;20038;-80
2022/06/24 08:17:05;;;;;;;2.10;1.50;;;;;;;;;;5104786;28;20480;-82
2022/06/24 08:19:30;;;;;;;1.65;1.10;;;;;;;;;;5091112;28;20023;-81
2022/06/24 08:21:56;;;;;;;1.20;1.10;;;;;;;;;;5091156;28;20385;-82
2022/06/24 08:24:21;;;;;;;1.75;1.30;;;;;;;;;;5108378;28;20023;-82
2022/06/24 08:26:47;;;;;;;1.38;1.27;;;;;;;;;;5111858;28;20462;-83
2022/06/24 08:29:12;;;;;;;1.95;1.23;;;;;;;;;;5112968;28;20059;-86
2022/06/24 08:31:38;;;;;;;2.42;1.30;;;;;;;;;;5112716;28;20035;-82
2022/06/24 08:34:03;;;;;;;1.30;1.20;;;;;;;;;;5128093;27;20059;-81
2022/06/24 08:36:29;;;;;;;1.17;1.08;;;;;;;;;;5095282;28;20042;-85
2022/06/24 08:38:55;;;;;;;3.15;1.30;;;;;;;;;;5113342;28;20028;-82
2022/06/24 08:41:23;;;;;;;2.63;1.40;;;;;;;;;;5110794;27;20207;-82
2022/06/24 08:43:51;;;;;;;1.70;1.38;;;;;;;;;;5113268;28;20024;-85
2022/06/24 08:46:17;;;;;;;1.52;1.20;;;;;;;;;;5096357;28;20467;-84
2022/06/24 08:48:43;;;;;;;2.63;1.40;;;;;;;;;;5112770;28;20031;-82
2022/06/24 08:51:12;;;;;;;1.67;1.17;;;;;;;;;;5113124;28;20028;-85
2022/06/24 08:53:39;;;;;;;1.95;1.35;;;;;;;;;;5112199;28;20400;-84
2022/06/24 08:56:05;;;;;;;2.67;1.27;;;;;;;;;;5114100;28;20031;-84
2022/06/24 08:58:31;;;;;;;1.85;1.42;;;;;;;;;;5113543;28;20067;-84
2022/06/24 09:00:56;;;;;;;1.15;1.00;;;;;;;;;;5112685;28;20080;-83
2022/06/24 09:03:22;;;;;;;1.33;1.10;;;;;;;;;;5111887;28;20540;-81
2022/06/24 09:05:50;;;;;;;1.42;1.10;;;;;;;;;;5114091;28;20513;-83
2022/06/24 09:08:16;;;;;;;1.00;0.90;;;;;;;;;;5114325;28;20462;-82
2022/06/24 09:13:41;;;;;;;1.70;1.50;;;;;;;;;;5113114;28;20399;-82
2022/06/24 09:16:07;;;;;;;1.65;1.20;;;;;;;;;;5091930;28;20039;-82
2022/06/24 09:18:33;;;;;;;1.50;1.17;;;;;;;;;;5110174;28;20398;-83
2022/06/24 09:20:59;;;;;;;2.35;1.20;;;;;;;;;;5094485;28;20023;-83
2022/06/24 09:23:24;;;;;;;1.20;1.10;;;;;;;;;;5112879;28;20019;-82
2022/06/24 09:25:53;;;;;;;1.75;1.40;;;;;;;;;;5114251;28;20024;-82
2022/06/24 09:28:32;;;;;;;1.52;1.20;;;;;;;;;;5111250;28;20056;-86
2022/06/24 09:31:08;;;;;;;1.33;1.10;;;;;;;;;;5109346;28;20051;-84
2022/06/24 09:33:42;;;;;;;1.45;1.13;;;;;;;;;;5114026;28;20023;-84
2022/06/24 09:36:09;;;;;;;1.52;1.02;;;;;;;;;;5110563;28;20051;-85
2022/06/24 09:38:54;;;;;;;1.63;1.30;;;;;;;;;;5111407;28;20030;-84
2022/06/24 09:41:20;;;;;;;2.67;1.10;;;;;;;;;;5112960;28;20329;-84
2022/06/24 09:43:46;;;;;;;2.30;1.00;;;;;;;;;;5096549;28;20027;-84
2022/06/24 09:46:23;;;;;;;1.05;0.90;;;;;;;;;;5114775;28;20067;-84
2022/06/24 09:48:57;;;;;;;1.40;0.90;;;;;;;;;;5114390;28;20024;-87
2022/06/24 09:51:22;;;;;;;0.93;0.70;;;;;;;;;;5095709;28;20031;-87
2022/06/24 09:53:49;;;;;;;1.13;0.70;;;;;;;;;;5094718;28;20040;-86
2022/06/24 09:56:14;;;;;;;0.88;0.80;;;;;;;;;;5112999;28;20019;-84
2022/06/24 10:00:40;;;;;;;0.70;0.70;;;;;;;;;;5092174;28;20068;-83
2022/06/24 10:01:33;;;;;;;1.05;0.80;;;;;;;;;;5111214;28;20480;-85
2022/06/24 10:04:00;;;;;;;1.40;0.80;;;;;;;;;;5111633;28;20038;-86
2022/06/24 10:06:28;;;;;;;0.70;0.68;;;;;;;;;;5113010;27;20498;-87
2022/06/24 10:08:54;;;;;;;1.42;0.88;;;;;;;;;;5092934;28;20028;-83
2022/06/24 10:11:21;;;;;;;0.95;0.88;;;;;;;;;;5110059;28;20122;-83
2022/06/24 10:13:47;;;;;;;2.28;1.20;;;;;;;;;;5113569;27;20024;-85
2022/06/24 10:16:12;;;;;;;1.08;0.98;;;;;;;;;;5115448;27;20034;-84
2022/06/24 10:18:43;;;;;;;1.60;0.80;;;;;;;;;;5109819;28;20031;-85
2022/06/24 10:21:10;;;;;;;1.15;0.70;;;;;;;;;;5111316;28;20016;-89
2022/06/24 10:23:41;;;;;;;1.50;0.73;;;;;;;;;;5112902;28;20412;-88
2022/06/24 10:26:13;;;;;;;0.80;0.80;;;;;;;;;;5091954;28;20031;-84
2022/06/24 10:29:03;;;;;;;0.95;0.80;;;;;;;;;;5109840;28;20049;-88
2022/06/24 10:31:56;;;;;;;0.75;0.70;;;;;;;;;;5088908;28;20035;-84
2022/06/24 10:34:22;;;;;;;1.63;0.77;;;;;;;;;;5110288;28;20512;-85
2022/06/24 10:36:51;;;;;;;1.10;0.70;;;;;;;;;;5107516;28;20028;-87
2022/06/24 10:39:22;;;;;;;0.82;0.68;;;;;;;;;;5107586;28;20038;-85
2022/06/24 10:42:06;;;;;;;0.95;0.70;;;;;;;;;;5112409;28;20031;-86
2022/06/24 10:44:31;;;;;;;1.23;0.68;;;;;;;;;;5092034;28;20476;-89
2022/06/24 10:47:12;;;;;;;1.65;0.70;;;;;;;;;;5093056;28;20026;-86
2022/06/24 10:49:55;;;;;;;1.02;0.60;;;;;;;;;;5093407;28;20032;-87
2022/06/24 10:52:46;;;;;;;1.92;0.80;;;;;;;;;;5092198;28;20028;-85
2022/06/24 10:55:15;;;;;;;0.70;0.70;;;;;;;;;;5093354;28;20074;-85
2022/06/24 10:57:41;;;;;;;0.60;0.60;;;;;;;;;;5112911;28;20387;-87
2022/06/24 11:00:26;;;;;;;1.67;0.60;;;;;;;;;;5093685;28;20410;-89
2022/06/24 11:02:59;;;;;;;1.00;0.63;;;;;;;;;;5092987;28;20027;-87
2022/06/24 11:05:29;;;;;;;0.90;0.90;;;;;;;;;;5091887;28;20026;-86
2022/06/24 11:07:55;;;;;;;1.50;0.90;;;;;;;;;;5094369;28;20032;-86
2022/06/24 11:10:23;;;;;;;0.90;0.63;;;;;;;;;;5105683;28;20055;-86
2022/06/24 11:12:58;;;;;;;0.63;0.63;;;;;;;;;;5109517;28;20097;-85
2022/06/24 11:15:38;;;;;;;1.35;0.40;;;;;;;;;;5111539;28;20463;-85
2022/06/24 11:18:09;;;;;;;1.08;0.60;;;;;;;;;;5105234;28;20019;-81
2022/06/24 11:20:55;;;;;;;1.42;0.60;;;;;;;;;;5108449;28;20031;-82
2022/06/24 11:23:23;;;;;;;0.80;0.77;;;;;;;;;;5108280;28;20085;-83
2022/06/24 11:25:56;;;;;;;0.80;0.80;;;;;;;;;;5090798;28;20081;-84
2022/06/24 11:28:29;;;;;;;1.20;0.77;;;;;;;;;;5090795;28;20020;-83
2022/06/24 11:30:56;;;;;;;1.40;0.70;;;;;;;;;;5104791;28;20524;-82
2022/06/24 11:33:22;;;;;;;1.10;0.70;;;;;;;;;;5109699;28;20047;-83
2022/06/24 11:35:49;;;;;;;0.98;0.68;;;;;;;;;;5111663;28;20498;-83
2022/06/24 11:38:15;;;;;;;0.70;0.70;;;;;;;;;;5090824;28;20035;-83
2022/06/24 11:40:41;;;;;;;2.33;0.82;;;;;;;;;;5111515;28;20039;-83
2022/06/24 11:43:11;;;;;;;0.95;0.80;;;;;;;;;;5111404;28;20023;-87
2022/06/24 11:45:41;;;;;;;1.48;0.63;;;;;;;;;;5112549;28;20030;-86
2022/06/24 11:48:10;;;;;;;0.80;0.75;;;;;;;;;;5110756;28;20026;-91
2022/06/24 11:50:37;;;;;;;0.70;0.70;;;;;;;;;;5094170;28;20020;-90
2022/06/24 11:53:04;;;;;;;1.90;0.90;;;;;;;;;;5111543;28;20023;-87
2022/06/24 11:55:38;;;;;;;0.60;0.60;;;;;;;;;;5090015;28;20480;-90
2022/06/24 11:58:06;;;;;;;0.50;0.50;;;;;;;;;;5110567;28;20027;-88
2022/06/24 12:00:36;;;;;;;0.68;0.57;;;;;;;;;;5112520;28;20502;-87
2022/06/24 12:03:04;;;;;;;0.60;0.57;;;;;;;;;;5107547;28;20032;-89
2022/06/24 12:05:31;;;;;;;1.00;0.52;;;;;;;;;;5087657;28;20081;-87
2022/06/24 12:07:57;;;;;;;1.55;0.80;;;;;;;;;;5110853;28;20106;-89
2022/06/24 12:10:23;;;;;;;1.02;0.65;;;;;;;;;;5109209;28;20051;-88
2022/06/24 12:13:05;;;;;;;0.57;0.57;;;;;;;;;;5089976;28;20051;-86
2022/06/24 12:15:37;;;;;;;2.55;0.80;;;;;;;;;;5092548;28;20384;-88
2022/06/24 12:18:14;;;;;;;2.25;0.77;;;;;;;;;;5097787;28;20406;-88
2022/06/24 12:20:39;;;;;;;0.77;0.70;;;;;;;;;;5112754;28;20195;-88
2022/06/24 12:23:22;;;;;;;0.60;0.60;;;;;;;;;;5094538;28;20470;-86
2022/06/24 12:25:51;;;;;;;1.10;0.65;;;;;;;;;;5093793;28;20168;-89
2022/06/24 12:28:23;;;;;;;1.25;0.70;;;;;;;;;;5093265;28;20027;-89
2022/06/24 12:31:07;;;;;;;3.42;0.80;;;;;;;;;;5093358;28;20046;-86
2022/06/24 12:33:45;;;;;;;0.82;0.68;;;;;;;;;;5108016;28;20031;-86
2022/06/24 12:36:17;;;;;;;1.35;0.70;;;;;;;;;;5095691;28;20399;-87
2022/06/24 12:38:58;;;;;;;1.08;0.60;;;;;;;;;;5090334;28;20050;-87
2022/06/24 12:41:48;;;;;;;0.68;0.60;;;;;;;;;;5075445;28;20047;-87
2022/06/24 12:44:16;;;;;;;1.37;0.90;;;;;;;;;;5093116;28;20027;-89
2022/06/24 12:52:47;;;;;;;1.00;0.82;;;;;;;;;;5108884;28;20066;-88
2022/06/24 12:55:20;;;;;;;0.70;0.70;;;;;;;;;;5094208;28;20372;-86
2022/06/24 12:57:47;;;;;;;1.98;0.77;;;;;;;;;;5095941;28;20036;-89
2022/06/24 13:00:15;;;;;;;1.80;0.63;;;;;;;;;;5094512;28;20035;-88
2022/06/24 13:02:43;;;;;;;0.90;0.70;;;;;;;;;;5094144;28;20032;-86
2022/06/24 13:05:09;;;;;;;0.80;0.70;;;;;;;;;;5107183;28;20027;-90
2022/06/24 13:07:36;;;;;;;0.68;0.68;;;;;;;;;;5093499;28;20019;-86
2022/06/24 13:10:02;;;;;;;1.90;0.70;;;;;;;;;;5112404;28;20028;-85
2022/06/24 13:12:27;;;;;;;0.95;0.65;;;;;;;;;;5091103;28;20031;-85
2022/06/24 13:14:52;;;;;;;0.98;0.70;;;;;;;;;;5114524;28;20024;-86
2022/06/24 13:17:18;;;;;;;1.55;0.73;;;;;;;;;;5114733;28;20042;-85
2022/06/24 13:19:47;;;;;;;0.80;0.63;;;;;;;;;;5113524;28;20031;-84
2022/06/24 13:22:12;;;;;;;0.70;0.68;;;;;;;;;;5112487;28;20084;-88
2022/06/24 13:24:37;;;;;;;0.88;0.70;;;;;;;;;;5095840;28;20031;-86
2022/06/24 13:27:05;;;;;;;0.57;0.57;;;;;;;;;;5098722;28;20050;-87
2022/06/24 13:29:31;;;;;;;0.60;0.60;;;;;;;;;;5111400;28;20110;-87
2022/06/24 13:31:59;;;;;;;0.80;0.70;;;;;;;;;;5111823;28;20043;-90
2022/06/24 13:34:26;;;;;;;3.90;0.80;;;;;;;;;;5114564;28;20023;-88
2022/06/24 13:36:51;;;;;;;1.90;0.68;;;;;;;;;;5114390;28;20511;-85
2022/06/24 13:39:17;;;;;;;0.85;0.70;;;;;;;;;;5112926;28;20111;-88
2022/06/24 13:41:42;;;;;;;1.17;0.77;;;;;;;;;;5092837;28;20032;-85
2022/06/24 13:44:08;;;;;;;3.20;0.93;;;;;;;;;;5095782;28;20030;-84
2022/06/24 13:46:34;;;;;;;1.50;0.60;;;;;;;;;;5114906;28;20023;-88
2022/06/24 13:48:59;;;;;;;1.10;0.63;;;;;;;;;;5115046;28;20028;-87
2022/06/24 13:51:25;;;;;;;0.60;0.60;;;;;;;;;;5110938;28;20023;-86
2022/06/24 13:53:52;;;;;;;1.13;0.82;;;;;;;;;;5094859;28;20052;-85
2022/06/24 13:56:18;;;;;;;1.55;0.70;;;;;;;;;;5097002;28;20035;-88
2022/06/24 13:58:45;;;;;;;0.82;0.60;;;;;;;;;;5095244;28;20054;-86
2022/06/24 14:01:11;;;;;;;1.42;0.70;;;;;;;;;;5114564;28;20030;-87
2022/06/24 14:03:43;;;;;;;1.13;0.70;;;;;;;;;;5092480;28;20043;-88
2022/06/24 14:06:08;;;;;;;1.85;0.60;;;;;;;;;;5096221;28;20390;-87
2022/06/24 14:08:34;;;;;;;0.60;0.60;;;;;;;;;;5095766;28;20027;-88
2022/06/24 14:11:00;;;;;;;0.60;0.60;;;;;;;;;;5113871;28;20031;-89
2022/06/24 14:13:26;;;;;;;0.98;0.73;;;;;;;;;;5114027;28;20476;-86
2022/06/24 14:15:51;;;;;;;0.75;0.60;;;;;;;;;;5109860;28;20085;-87
2022/06/24 14:18:17;;;;;;;0.60;0.60;;;;;;;;;;5091877;28;20026;-88
2022/06/24 14:20:42;;;;;;;1.00;0.60;;;;;;;;;;5114495;28;20114;-89
2022/06/24 14:25:53;;;;;;;1.13;0.60;;;;;;;;;;5106850;28;20386;-87
2022/06/24 14:28:18;;;;;;;0.57;0.57;;;;;;;;;;5094576;28;20020;-86
2022/06/24 14:30:44;;;;;;;1.05;0.60;;;;;;;;;;5113438;28;20022;-84
2022/06/24 14:33:09;;;;;;;0.65;0.52;;;;;;;;;;5111191;28;20051;-86
2022/06/24 14:35:35;;;;;;;1.85;0.65;;;;;;;;;;5113619;28;20047;-88
2022/06/24 14:40:44;;;;;;;1.70;0.75;;;;;;;;;;5113909;28;20475;-86
2022/06/24 14:43:10;;;;;;;0.75;0.60;;;;;;;;;;5092546;28;20027;-89
2022/06/24 14:45:35;;;;;;;1.63;0.45;;;;;;;;;;5091589;28;20459;-88
2022/06/24 14:48:03;;;;;;;0.30;0.30;;;;;;;;;;5111141;28;20631;-87
2022/06/24 14:50:30;;;;;;;1.35;0.60;;;;;;;;;;5113121;28;20027;-88
2022/06/24 14:52:56;;;;;;;0.50;0.50;;;;;;;;;;5092900;28;20417;-87
2022/06/24 14:55:23;;;;;;;1.20;0.63;;;;;;;;;;5090057;28;20077;-87
2022/06/24 14:57:49;;;;;;;0.73;0.60;;;;;;;;;;5092523;28;20023;-87
2022/06/24 15:00:15;;;;;;;0.50;0.50;;;;;;;;;;5074612;28;20107;-88
2022/06/24 15:02:40;;;;;;;1.20;0.70;;;;;;;;;;5092374;28;20107;-86
2022/06/24 15:05:06;;;;;;;1.08;0.50;;;;;;;;;;5074677;28;20430;-87
2022/06/24 15:07:31;;;;;;;1.75;0.60;;;;;;;;;;5087556;28;20028;-88
2022/06/24 15:09:57;;;;;;;0.77;0.55;;;;;;;;;;5085672;28;20024;-84
2022/06/24 15:12:22;;;;;;;1.13;0.60;;;;;;;;;;5084467;28;20020;-85